Time;durP1;ratioP1;P1;durP2;ratioP2;P2;SDS_P1;SDS_P2;PMS_P1;PMS_P2;Temp;Humidity;BMP_temperature;BMP_pressure;BME280_temperature;BME280_humidity;BME280_pressure;Samples;Min_cycle;Max_cycle;Signal;HPM_P1;HPM_P2
2023/03/15 00:01:31;;;;;;;;;;;2.90;99.90;;;;;;5073386;28;19939;-66
2023/03/15 00:03:57;;;;;;;;;;;2.90;99.90;;;;;;5074423;28;19974;-68
2023/03/15 00:06:23;;;;;;;;;;;2.90;99.90;;;;;;5074112;28;19924;-65
2023/03/15 00:08:48;;;;;;;;;;;2.90;99.90;;;;;;5073565;28;19931;-65
2023/03/15 00:11:14;;;;;;;;;;;2.80;99.90;;;;;;5065442;28;19928;-65
2023/03/15 00:13:40;;;;;;;;;;;2.80;99.90;;;;;;5075227;28;20320;-64
2023/03/15 00:16:06;;;;;;;;;;;2.70;99.90;;;;;;5094075;28;19924;-65
2023/03/15 00:18:31;;;;;;;;;;;2.70;99.90;;;;;;5094233;28;19955;-66
2023/03/15 00:20:57;;;;;;;;;;;2.70;99.90;;;;;;5086501;28;20033;-65
2023/03/15 00:23:23;;;;;;;;;;;2.70;99.90;;;;;;5078063;28;20404;-65
2023/03/15 00:25:49;;;;;;;;;;;2.70;99.90;;;;;;5076066;28;19975;-64
2023/03/15 00:28:15;;;;;;;;;;;2.70;99.90;;;;;;5094261;28;19924;-65
2023/03/15 00:30:41;;;;;;;;;;;2.60;99.90;;;;;;5075209;28;19925;-65
2023/03/15 00:33:07;;;;;;;;;;;2.70;99.90;;;;;;5067422;28;19980;-65
2023/03/15 00:35:36;;;;;;;;;;;2.70;99.90;;;;;;5073110;28;19924;-64
2023/03/15 00:38:03;;;;;;;;;;;2.60;99.90;;;;;;5075960;28;19931;-65
2023/03/15 00:40:29;;;;;;;;;;;2.50;99.90;;;;;;5070729;28;19928;-64
2023/03/15 00:42:56;;;;;;;;;;;2.50;99.90;;;;;;5078896;28;20494;-65
2023/03/15 00:45:23;;;;;;;;;;;2.50;99.90;;;;;;5075320;28;19926;-65
2023/03/15 00:47:50;;;;;;;;;;;2.40;99.90;;;;;;5071489;28;19942;-64
2023/03/15 00:50:15;;;;;;;;;;;2.50;99.90;;;;;;5056020;28;20262;-64
2023/03/15 00:52:41;;;;;;;;;;;2.40;99.90;;;;;;5070969;28;19944;-64
2023/03/15 00:55:14;;;;;;;;;;;2.50;99.90;;;;;;5073582;28;19929;-64
2023/03/15 00:57:40;;;;;;;;;;;2.50;99.90;;;;;;5072830;28;19978;-64
2023/03/15 01:00:11;;;;;;;;;;;2.50;99.90;;;;;;5072879;28;20393;-65
2023/03/15 01:02:36;;;;;;;;;;;2.50;99.90;;;;;;5055267;28;19935;-66
2023/03/15 01:05:03;;;;;;;;;;;3.00;99.90;;;;;;5047587;28;20324;-65
2023/03/15 01:07:32;;;;;;;;;;;2.60;99.90;;;;;;5038951;28;19924;-65
2023/03/15 01:10:00;;;;;;;;;;;2.60;99.90;;;;;;5072350;28;19929;-65
2023/03/15 01:12:26;;;;;;;;;;;2.60;99.90;;;;;;5072883;28;20450;-65
2023/03/15 01:14:51;;;;;;;;;;;2.60;99.90;;;;;;5049307;28;19928;-67
2023/03/15 01:17:17;;;;;;;;;;;2.70;99.90;;;;;;5074942;28;19928;-68
2023/03/15 01:19:42;;;;;;;;;;;2.80;99.90;;;;;;5074485;28;19959;-66
2023/03/15 01:22:08;;;;;;;;;;;2.40;99.90;;;;;;5087255;28;19925;-65
2023/03/15 01:24:33;;;;;;;;;;;2.40;99.90;;;;;;5066653;28;19967;-65
2023/03/15 01:26:59;;;;;;;;;;;2.40;99.90;;;;;;5088406;28;20297;-66
2023/03/15 01:29:25;;;;;;;;;;;2.40;99.90;;;;;;5074636;28;19928;-65
2023/03/15 01:31:50;;;;;;;;;;;2.30;99.90;;;;;;5089632;28;19947;-65
2023/03/15 01:34:16;;;;;;;;;;;2.20;99.90;;;;;;5090153;28;19924;-65
2023/03/15 01:36:41;;;;;;;;;;;2.20;99.90;;;;;;5084573;28;20319;-67
2023/03/15 01:39:07;;;;;;;;;;;2.40;99.90;;;;;;5088767;28;19971;-65
2023/03/15 01:41:32;;;;;;;;;;;2.20;99.90;;;;;;5074863;28;20403;-65
2023/03/15 01:43:58;;;;;;;;;;;2.20;99.90;;;;;;5092090;28;19928;-65
2023/03/15 01:46:33;;;;;;;;;;;2.20;99.90;;;;;;5076496;28;20022;-65
2023/03/15 01:49:01;;;;;;;;;;;2.20;99.90;;;;;;5072625;28;19975;-64
2023/03/15 01:51:27;;;;;;;;;;;2.20;99.90;;;;;;5074569;28;19939;-64
2023/03/15 01:53:56;;;;;;;;;;;2.20;99.90;;;;;;5092149;28;19924;-64
2023/03/15 01:56:22;;;;;;;;;;;2.20;99.90;;;;;;5086674;28;19932;-64
2023/03/15 01:58:49;;;;;;;;;;;2.10;99.90;;;;;;5073726;28;19933;-64
2023/03/15 02:01:15;;;;;;;;;;;2.20;99.90;;;;;;5076564;28;20328;-64
2023/03/15 02:03:45;;;;;;;;;;;2.20;99.90;;;;;;5092105;28;19924;-64
2023/03/15 02:06:17;;;;;;;;;;;2.10;99.90;;;;;;5072181;28;19969;-64
2023/03/15 02:08:45;;;;;;;;;;;2.20;99.90;;;;;;5089932;28;20338;-66
2023/03/15 02:11:12;;;;;;;;;;;2.20;99.90;;;;;;5060118;28;20053;-67
2023/03/15 02:13:38;;;;;;;;;;;2.10;99.90;;;;;;5067650;28;19924;-66
2023/03/15 02:16:05;;;;;;;;;;;2.10;99.90;;;;;;5072455;28;20911;-66
2023/03/15 02:18:34;;;;;;;;;;;2.10;99.90;;;;;;5070466;28;19978;-66
2023/03/15 02:21:00;;;;;;;;;;;2.10;99.90;;;;;;5053047;28;19924;-64
2023/03/15 02:23:26;;;;;;;;;;;2.10;99.90;;;;;;5078457;28;19924;-65
2023/03/15 02:26:15;;;;;;;;;;;2.10;99.90;;;;;;5090402;28;20278;-65
2023/03/15 02:28:41;;;;;;;;;;;2.10;99.90;;;;;;5050558;28;19931;-65
2023/03/15 02:31:07;;;;;;;;;;;2.10;99.90;;;;;;5087639;28;20023;-65
2023/03/15 02:33:35;;;;;;;;;;;2.10;99.90;;;;;;5084267;28;20004;-65
2023/03/15 02:36:27;;;;;;;;;;;2.20;99.90;;;;;;5073571;28;20285;-64
2023/03/15 02:38:53;;;;;;;;;;;2.10;99.90;;;;;;5074101;28;19975;-66
2023/03/15 02:41:38;;;;;;;;;;;2.10;99.90;;;;;;5089265;28;20373;-64
2023/03/15 02:44:10;;;;;;;;;;;2.00;99.90;;;;;;5068414;28;20010;-64
2023/03/15 02:46:36;;;;;;;;;;;2.00;99.90;;;;;;5074193;28;19924;-64
2023/03/15 02:49:02;;;;;;;;;;;2.10;99.90;;;;;;5080285;28;19924;-64
2023/03/15 02:51:28;;;;;;;;;;;2.00;99.90;;;;;;5091784;28;20406;-64
2023/03/15 02:53:54;;;;;;;;;;;2.00;99.90;;;;;;5076996;28;19947;-69
2023/03/15 02:56:20;;;;;;;;;;;2.00;99.90;;;;;;5072378;28;19931;-64
2023/03/15 02:58:45;;;;;;;;;;;1.90;99.90;;;;;;5066222;28;19932;-65
2023/03/15 03:01:12;;;;;;;;;;;1.90;99.90;;;;;;5090874;28;20556;-65
2023/03/15 03:03:38;;;;;;;;;;;2.00;99.90;;;;;;5070256;28;19928;-65
2023/03/15 03:06:04;;;;;;;;;;;1.80;99.90;;;;;;5083862;28;19924;-65
2023/03/15 03:08:30;;;;;;;;;;;1.80;99.90;;;;;;5079549;28;20270;-65
2023/03/15 03:10:55;;;;;;;;;;;1.80;99.90;;;;;;5087013;28;20270;-67
2023/03/15 03:13:21;;;;;;;;;;;1.80;99.90;;;;;;5085136;28;20020;-65
2023/03/15 03:15:48;;;;;;;;;;;1.80;99.90;;;;;;5088157;28;20377;-65
2023/03/15 03:18:14;;;;;;;;;;;1.70;99.90;;;;;;5079790;28;20007;-65
2023/03/15 03:20:39;;;;;;;;;;;1.70;99.90;;;;;;5071625;28;20019;-65
2023/03/15 03:23:05;;;;;;;;;;;1.60;99.90;;;;;;5069629;28;19924;-65
2023/03/15 03:25:31;;;;;;;;;;;1.70;99.90;;;;;;5083333;28;19924;-65
2023/03/15 03:27:57;;;;;;;;;;;1.70;99.90;;;;;;5077020;28;20149;-66
2023/03/15 03:30:24;;;;;;;;;;;1.70;99.90;;;;;;5074612;28;20393;-65
2023/03/15 03:32:49;;;;;;;;;;;1.70;99.90;;;;;;5087505;28;20280;-65
2023/03/15 03:35:15;;;;;;;;;;;1.70;99.90;;;;;;5067810;28;19924;-65
2023/03/15 03:37:41;;;;;;;;;;;1.70;99.90;;;;;;5084528;28;19935;-65
2023/03/15 03:40:08;;;;;;;;;;;1.70;99.90;;;;;;5082431;28;19932;-65
2023/03/15 03:42:34;;;;;;;;;;;1.70;99.90;;;;;;5083679;28;19924;-65
2023/03/15 03:44:59;;;;;;;;;;;1.70;99.90;;;;;;5069659;28;19971;-67
2023/03/15 03:47:25;;;;;;;;;;;1.80;99.90;;;;;;5089712;28;20389;-65
2023/03/15 03:49:50;;;;;;;;;;;1.70;99.90;;;;;;5054992;28;19924;-65
2023/03/15 03:52:16;;;;;;;;;;;1.70;99.90;;;;;;5081505;28;19924;-65
2023/03/15 03:54:42;;;;;;;;;;;1.60;99.90;;;;;;5088864;28;19933;-65
2023/03/15 03:57:09;;;;;;;;;;;2.10;99.90;;;;;;5072295;28;19932;-65
2023/03/15 03:59:34;;;;;;;;;;;1.60;99.90;;;;;;5077621;28;19931;-65
2023/03/15 04:02:00;;;;;;;;;;;1.60;99.90;;;;;;5083080;28;20253;-65
2023/03/15 04:04:25;;;;;;;;;;;1.50;99.90;;;;;;5089991;28;19924;-65
2023/03/15 04:06:53;;;;;;;;;;;1.50;99.90;;;;;;5071677;28;19928;-65
2023/03/15 04:09:20;;;;;;;;;;;1.50;99.90;;;;;;5083245;28;19963;-65
2023/03/15 04:11:46;;;;;;;;;;;1.50;99.90;;;;;;5082828;28;20011;-64
2023/03/15 04:14:12;;;;;;;;;;;1.50;99.90;;;;;;5072073;28;20046;-64
2023/03/15 04:16:38;;;;;;;;;;;1.50;99.90;;;;;;5068058;28;19924;-68
2023/03/15 04:19:04;;;;;;;;;;;1.50;99.90;;;;;;5072724;28;19932;-65
2023/03/15 04:21:32;;;;;;;;;;;1.50;99.90;;;;;;5047505;28;19925;-64
2023/03/15 04:23:58;;;;;;;;;;;1.40;99.90;;;;;;5088656;28;19924;-65
2023/03/15 04:26:25;;;;;;;;;;;1.30;99.90;;;;;;5062993;28;19967;-65
2023/03/15 04:28:54;;;;;;;;;;;1.30;99.90;;;;;;5094187;28;20356;-65
2023/03/15 04:31:20;;;;;;;;;;;1.30;99.90;;;;;;5083723;28;19924;-65
2023/03/15 04:33:45;;;;;;;;;;;2.00;99.90;;;;;;5082991;28;20289;-65
2023/03/15 04:36:17;;;;;;;;;;;1.30;99.90;;;;;;5087377;28;19935;-65
2023/03/15 04:38:45;;;;;;;;;;;1.30;99.90;;;;;;5083086;28;19924;-65
2023/03/15 04:41:11;;;;;;;;;;;1.30;99.90;;;;;;5084835;28;19977;-65
2023/03/15 04:43:37;;;;;;;;;;;2.10;99.90;;;;;;5088560;28;19983;-65
2023/03/15 04:46:02;;;;;;;;;;;1.20;99.90;;;;;;5086987;28;19927;-65
2023/03/15 04:48:28;;;;;;;;;;;1.20;99.90;;;;;;5078040;28;19924;-65
2023/03/15 04:50:53;;;;;;;;;;;1.40;99.90;;;;;;5092162;28;19969;-65
2023/03/15 04:53:19;;;;;;;;;;;1.20;99.90;;;;;;5090204;28;19932;-65
2023/03/15 04:55:45;;;;;;;;;;;1.20;99.90;;;;;;5084486;28;19928;-65
2023/03/15 04:58:10;;;;;;;;;;;1.20;99.90;;;;;;5083840;28;20412;-67
2023/03/15 05:00:36;;;;;;;;;;;1.20;99.90;;;;;;5075542;28;19932;-65
2023/03/15 05:03:01;;;;;;;;;;;1.20;99.90;;;;;;5090808;28;19946;-65
2023/03/15 05:05:28;;;;;;;;;;;1.20;99.90;;;;;;5069527;28;19950;-65
2023/03/15 05:07:53;;;;;;;;;;;1.20;99.90;;;;;;5075580;28;19935;-65
2023/03/15 05:10:19;;;;;;;;;;;1.20;99.90;;;;;;5086930;28;20296;-65
2023/03/15 05:12:45;;;;;;;;;;;1.20;99.90;;;;;;5083763;28;20255;-65
2023/03/15 05:15:11;;;;;;;;;;;1.20;99.90;;;;;;5084704;28;20015;-65
2023/03/15 05:17:36;;;;;;;;;;;1.20;99.90;;;;;;5092713;28;20010;-65
2023/03/15 05:20:09;;;;;;;;;;;1.20;99.90;;;;;;5075125;28;19924;-65
2023/03/15 05:22:35;;;;;;;;;;;1.20;99.90;;;;;;5043383;28;19982;-65
2023/03/15 05:25:00;;;;;;;;;;;1.20;99.90;;;;;;5075095;28;19924;-65
2023/03/15 05:27:27;;;;;;;;;;;1.20;99.90;;;;;;5071494;28;19924;-65
2023/03/15 05:29:52;;;;;;;;;;;1.20;99.90;;;;;;5065087;28;19935;-65
2023/03/15 05:32:18;;;;;;;;;;;1.20;99.90;;;;;;5074524;28;19924;-65
2023/03/15 05:34:43;;;;;;;;;;;1.20;99.90;;;;;;5048535;28;19977;-65
2023/03/15 05:37:11;;;;;;;;;;;1.60;99.90;;;;;;5064900;28;19929;-65
2023/03/15 05:39:36;;;;;;;;;;;1.10;99.90;;;;;;5071771;28;19920;-65
2023/03/15 05:42:02;;;;;;;;;;;1.10;99.90;;;;;;5054380;28;19924;-65
2023/03/15 05:44:27;;;;;;;;;;;1.10;99.90;;;;;;5071371;28;20015;-66
2023/03/15 05:46:53;;;;;;;;;;;1.10;99.90;;;;;;5071778;28;19956;-65
2023/03/15 05:49:19;;;;;;;;;;;1.60;99.90;;;;;;5071700;28;19925;-67
2023/03/15 05:51:45;;;;;;;;;;;1.10;99.90;;;;;;5072296;28;19934;-65
2023/03/15 05:54:10;;;;;;;;;;;1.10;99.90;;;;;;5054003;28;19928;-65
2023/03/15 05:56:36;;;;;;;;;;;1.10;99.90;;;;;;5070251;28;19928;-65
2023/03/15 05:59:03;;;;;;;;;;;1.20;99.90;;;;;;5055639;28;19974;-65
2023/03/15 06:01:28;;;;;;;;;;;1.20;99.90;;;;;;5069457;28;19960;-65
2023/03/15 06:03:54;;;;;;;;;;;1.20;99.90;;;;;;5071597;28;20285;-65
2023/03/15 06:06:19;;;;;;;;;;;1.30;99.90;;;;;;5077691;28;19924;-67
2023/03/15 06:08:45;;;;;;;;;;;1.10;99.90;;;;;;5079524;28;19924;-64
2023/03/15 06:11:11;;;;;;;;;;;1.30;99.90;;;;;;5062061;28;20001;-65
2023/03/15 06:13:36;;;;;;;;;;;1.30;99.90;;;;;;5091706;28;20007;-65
2023/03/15 06:16:02;;;;;;;;;;;1.30;99.90;;;;;;5081159;28;19954;-67
2023/03/15 06:18:27;;;;;;;;;;;1.30;99.90;;;;;;5028051;28;19936;-64
2023/03/15 06:20:53;;;;;;;;;;;1.30;99.90;;;;;;5035977;28;19933;-65
2023/03/15 06:23:19;;;;;;;;;;;1.30;99.90;;;;;;5050638;28;19972;-65
2023/03/15 06:25:44;;;;;;;;;;;1.30;99.90;;;;;;5043374;28;19932;-65
2023/03/15 06:28:10;;;;;;;;;;;1.30;99.90;;;;;;5023971;28;19925;-65
2023/03/15 06:30:35;;;;;;;;;;;1.40;99.90;;;;;;5036798;28;20358;-67
2023/03/15 06:33:01;;;;;;;;;;;1.40;99.90;;;;;;5033118;28;20397;-65
2023/03/15 06:35:27;;;;;;;;;;;1.50;99.90;;;;;;5030766;28;19940;-65
2023/03/15 06:37:53;;;;;;;;;;;1.50;99.90;;;;;;5027384;28;20333;-65
2023/03/15 06:40:18;;;;;;;;;;;1.50;99.90;;;;;;5031005;28;19932;-65
2023/03/15 06:42:44;;;;;;;;;;;1.50;99.90;;;;;;5030828;28;20478;-65
2023/03/15 06:45:10;;;;;;;;;;;1.60;99.90;;;;;;5017355;28;19935;-65
2023/03/15 06:47:35;;;;;;;;;;;1.60;99.90;;;;;;5029774;28;19929;-65
2023/03/15 06:50:01;;;;;;;;;;;1.70;99.90;;;;;;5028476;28;19981;-65
2023/03/15 06:52:26;;;;;;;;;;;1.70;99.90;;;;;;5030801;28;19951;-67
2023/03/15 06:54:52;;;;;;;;;;;1.80;99.90;;;;;;5030936;28;20130;-67
2023/03/15 06:57:17;;;;;;;;;;;1.80;99.90;;;;;;5029478;28;19925;-68
2023/03/15 06:59:43;;;;;;;;;;;1.90;99.90;;;;;;5030440;28;19924;-65
2023/03/15 07:02:12;;;;;;;;;;;1.90;99.90;;;;;;5030628;28;19929;-65
2023/03/15 07:04:38;;;;;;;;;;;2.00;99.90;;;;;;5024790;28;19930;-67
2023/03/15 07:07:04;;;;;;;;;;;2.10;99.90;;;;;;5029766;28;19925;-67
2023/03/15 07:09:29;;;;;;;;;;;2.10;99.90;;;;;;5027126;28;19947;-66
2023/03/15 07:11:55;;;;;;;;;;;2.20;99.90;;;;;;5019017;28;19932;-68
2023/03/15 07:14:21;;;;;;;;;;;2.30;99.90;;;;;;5019045;28;19977;-67
2023/03/15 07:16:47;;;;;;;;;;;2.50;99.90;;;;;;5015885;28;19936;-65
2023/03/15 07:19:13;;;;;;;;;;;2.70;99.90;;;;;;5049617;28;19932;-66
2023/03/15 07:21:38;;;;;;;;;;;3.30;99.90;;;;;;5048825;28;19924;-65
2023/03/15 07:24:04;;;;;;;;;;;4.20;99.90;;;;;;5056122;28;20382;-66
2023/03/15 07:26:29;;;;;;;;;;;5.10;99.90;;;;;;5063321;28;20249;-66
2023/03/15 07:28:55;;;;;;;;;;;6.00;99.90;;;;;;5063020;28;19936;-65
2023/03/15 07:31:21;;;;;;;;;;;6.90;99.90;;;;;;5066650;28;20419;-64
2023/03/15 07:33:46;;;;;;;;;;;7.80;99.90;;;;;;5048872;28;19943;-65
2023/03/15 07:36:12;;;;;;;;;;;8.70;99.90;;;;;;5031666;28;20393;-66
2023/03/15 07:38:38;;;;;;;;;;;9.40;99.90;;;;;;5049982;28;19978;-65
2023/03/15 07:41:04;;;;;;;;;;;9.90;99.90;;;;;;5050366;28;20373;-66
2023/03/15 07:43:30;;;;;;;;;;;10.10;99.90;;;;;;5039376;28;19929;-65
2023/03/15 07:45:56;;;;;;;;;;;;;;;;;;5044839;28;20052;-66
2023/03/15 07:48:22;;;;;;;;;;;10.40;99.90;;;;;;5048319;28;20011;-64
2023/03/15 07:50:48;;;;;;;;;;;;;;;;;;5050299;28;19940;-64
2023/03/15 07:53:14;;;;;;;;;;;11.40;99.90;;;;;;5049138;28;19980;-65
2023/03/15 07:55:39;;;;;;;;;;;12.90;99.90;;;;;;5048785;28;20004;-65
2023/03/15 07:58:05;;;;;;;;;;;13.70;99.90;;;;;;5050851;28;20099;-65
2023/03/15 08:00:31;;;;;;;;;;;14.40;99.50;;;;;;5053126;28;19929;-65
2023/03/15 08:02:56;;;;;;;;;;;14.60;99.70;;;;;;5052174;28;20123;-65
2023/03/15 08:05:23;;;;;;;;;;;15.00;99.70;;;;;;5054084;28;20267;-66
2023/03/15 08:07:48;;;;;;;;;;;15.30;97.50;;;;;;5052641;28;20004;-65
2023/03/15 08:10:15;;;;;;;;;;;15.50;98.30;;;;;;5053087;28;20337;-66
2023/03/15 08:12:41;;;;;;;;;;;15.80;96.30;;;;;;5052253;28;19928;-66
2023/03/15 08:15:11;;;;;;;;;;;15.90;95.90;;;;;;5052735;28;19935;-64
2023/03/15 08:17:37;;;;;;;;;;;15.80;96.60;;;;;;5059047;28;20020;-64
2023/03/15 08:20:03;;;;;;;;;;;15.70;96.80;;;;;;5061139;28;19935;-64
2023/03/15 08:22:29;;;;;;;;;;;16.00;96.20;;;;;;5054613;28;19924;-65
2023/03/15 08:24:56;;;;;;;;;;;16.10;95.90;;;;;;5073098;28;20392;-66
2023/03/15 08:27:25;;;;;;;;;;;16.50;96.90;;;;;;5058866;28;19925;-64
2023/03/15 08:29:50;;;;;;;;;;;16.50;96.30;;;;;;5052233;28;19925;-64
2023/03/15 08:32:17;;;;;;;;;;;16.50;95.00;;;;;;5052633;28;20035;-64
2023/03/15 08:34:43;;;;;;;;;;;16.70;94.70;;;;;;5052128;28;19924;-66
2023/03/15 08:37:09;;;;;;;;;;;16.80;95.10;;;;;;5059354;28;19932;-64
2023/03/15 08:39:35;;;;;;;;;;;16.80;94.50;;;;;;5037553;28;19924;-64
2023/03/15 08:42:01;;;;;;;;;;;17.00;94.30;;;;;;5043655;28;19929;-64
2023/03/15 08:44:26;;;;;;;;;;;17.00;93.60;;;;;;5051444;28;19952;-65
2023/03/15 08:46:52;;;;;;;;;;;17.00;93.50;;;;;;5052699;28;19979;-64
2023/03/15 08:49:17;;;;;;;;;;;17.10;93.40;;;;;;5052779;28;20393;-66
2023/03/15 08:51:43;;;;;;;;;;;17.00;92.40;;;;;;5050927;28;19983;-66
2023/03/15 08:54:08;;;;;;;;;;;16.90;93.10;;;;;;5048257;28;19925;-65
2023/03/15 08:56:34;;;;;;;;;;;17.30;93.00;;;;;;5045797;28;20428;-66
2023/03/15 08:59:00;;;;;;;;;;;17.60;92.60;;;;;;5051424;28;19955;-65
2023/03/15 09:01:29;;;;;;;;;;;17.80;91.80;;;;;;5056635;28;19924;-66
2023/03/15 09:03:54;;;;;;;;;;;17.70;90.90;;;;;;5051275;28;20054;-66
2023/03/15 09:06:20;;;;;;;;;;;17.80;90.70;;;;;;5061219;28;20034;-65
2023/03/15 09:08:45;;;;;;;;;;;18.00;90.30;;;;;;5050964;28;19929;-65
2023/03/15 09:11:12;;;;;;;;;;;17.80;90.20;;;;;;5041434;28;20301;-66
2023/03/15 09:13:38;;;;;;;;;;;18.00;89.30;;;;;;5028978;28;19931;-65
2023/03/15 09:16:03;;;;;;;;;;;17.90;88.30;;;;;;5027640;28;19924;-65
2023/03/15 09:18:29;;;;;;;;;;;17.60;90.10;;;;;;5068256;28;19928;-65
2023/03/15 09:20:55;;;;;;;;;;;17.50;89.20;;;;;;5062016;28;19943;-67
2023/03/15 09:23:20;;;;;;;;;;;16.60;89.40;;;;;;5074700;28;19947;-66
2023/03/15 09:25:46;;;;;;;;;;;15.60;90.40;;;;;;5057564;28;19932;-68
2023/03/15 09:28:11;;;;;;;;;;;14.70;90.90;;;;;;5049068;28;20382;-65
2023/03/15 09:30:38;;;;;;;;;;;13.80;91.40;;;;;;5068662;28;19928;-66
2023/03/15 09:33:03;;;;;;;;;;;13.30;92.10;;;;;;5065437;28;19929;-66
2023/03/15 09:35:29;;;;;;;;;;;13.00;92.40;;;;;;5056212;28;19934;-66
2023/03/15 09:37:55;;;;;;;;;;;12.50;92.20;;;;;;5060399;28;19970;-66
2023/03/15 09:40:28;;;;;;;;;;;12.40;93.40;;;;;;5060730;28;19935;-67
2023/03/15 09:43:14;;;;;;;;;;;12.20;93.40;;;;;;5058997;28;20015;-66
2023/03/15 09:45:49;;;;;;;;;;;12.10;92.90;;;;;;5032174;28;20412;-68
2023/03/15 09:48:21;;;;;;;;;;;11.70;92.40;;;;;;5059440;28;19935;-67
2023/03/15 09:50:51;;;;;;;;;;;11.40;93.00;;;;;;5060313;28;19932;-65
2023/03/15 09:53:19;;;;;;;;;;;11.30;93.90;;;;;;5061017;28;20342;-64
2023/03/15 09:55:46;;;;;;;;;;;11.30;92.60;;;;;;5046381;28;20265;-64
2023/03/15 09:58:16;;;;;;;;;;;11.20;92.30;;;;;;5055494;28;19934;-65
2023/03/15 10:00:46;;;;;;;;;;;10.90;92.00;;;;;;5055785;28;20211;-65
2023/03/15 10:03:17;;;;;;;;;;;10.90;92.90;;;;;;5057287;28;20357;-64
2023/03/15 10:05:44;;;;;;;;;;;10.70;92.90;;;;;;5074549;28;20442;-65
2023/03/15 10:08:20;;;;;;;;;;;10.70;93.00;;;;;;5050320;28;19931;-64
2023/03/15 10:10:49;;;;;;;;;;;10.70;93.00;;;;;;5066254;28;20453;-65
2023/03/15 10:13:29;;;;;;;;;;;10.70;93.10;;;;;;5050331;28;20438;-64
2023/03/15 10:16:02;;;;;;;;;;;10.40;93.10;;;;;;5025100;28;19929;-64
2023/03/15 10:18:41;;;;;;;;;;;10.40;93.40;;;;;;5059057;28;20301;-66
2023/03/15 10:21:11;;;;;;;;;;;10.50;93.40;;;;;;5055518;28;19951;-65
2023/03/15 10:23:45;;;;;;;;;;;10.40;93.30;;;;;;5067120;28;20071;-65
2023/03/15 10:26:13;;;;;;;;;;;10.30;93.30;;;;;;5051681;28;19935;-65
2023/03/15 10:28:38;;;;;;;;;;;10.50;93.80;;;;;;5068185;28;19928;-65
2023/03/15 10:31:12;;;;;;;;;;;10.50;93.60;;;;;;5060627;28;20408;-63
2023/03/15 10:33:38;;;;;;;;;;;10.70;93.60;;;;;;5042572;28;19929;-66
2023/03/15 10:36:23;;;;;;;;;;;10.90;93.10;;;;;;5059969;28;19925;-64
2023/03/15 10:38:49;;;;;;;;;;;10.90;92.90;;;;;;5068936;28;19924;-65
2023/03/15 10:41:35;;;;;;;;;;;10.80;93.10;;;;;;5069391;28;19931;-64
2023/03/15 10:44:02;;;;;;;;;;;10.80;93.10;;;;;;5069913;28;19986;-63
2023/03/15 10:46:27;;;;;;;;;;;10.80;92.40;;;;;;5053225;28;20385;-64
2023/03/15 10:48:58;;;;;;;;;;;10.80;93.00;;;;;;5071133;28;19931;-64
2023/03/15 10:51:27;;;;;;;;;;;10.70;93.40;;;;;;5068031;28;19920;-64
2023/03/15 10:53:55;;;;;;;;;;;10.60;93.60;;;;;;5069135;28;19968;-63
2023/03/15 10:56:25;;;;;;;;;;;10.40;93.40;;;;;;5052128;28;20282;-63
2023/03/15 10:58:51;;;;;;;;;;;10.40;93.20;;;;;;5069295;28;20065;-63
2023/03/15 11:01:28;;;;;;;;;;;10.50;93.60;;;;;;5067041;28;19956;-63
2023/03/15 11:04:20;;;;;;;;;;;10.50;94.20;;;;;;5064117;28;20344;-63
2023/03/15 11:06:57;;;;;;;;;;;10.70;94.20;;;;;;5065732;28;19929;-63
2023/03/15 11:09:25;;;;;;;;;;;10.70;94.50;;;;;;5072440;28;20403;-63
2023/03/15 11:12:00;;;;;;;;;;;10.60;94.20;;;;;;5066231;28;20554;-63
2023/03/15 11:14:34;;;;;;;;;;;10.70;94.00;;;;;;5054924;28;19975;-63
2023/03/15 11:17:00;;;;;;;;;;;10.70;94.00;;;;;;5062178;28;20298;-63
2023/03/15 11:19:28;;;;;;;;;;;10.70;92.60;;;;;;5053038;28;19925;-63
2023/03/15 11:21:54;;;;;;;;;;;10.70;93.40;;;;;;5056842;28;19977;-63
2023/03/15 11:24:20;;;;;;;;;;;10.80;93.90;;;;;;5062363;28;19929;-64
2023/03/15 11:26:51;;;;;;;;;;;10.70;94.00;;;;;;5065619;28;19928;-65
2023/03/15 11:29:21;;;;;;;;;;;10.80;93.50;;;;;;5061450;28;19985;-64
2023/03/15 11:31:48;;;;;;;;;;;10.90;93.80;;;;;;5061513;28;19933;-65
2023/03/15 11:34:33;;;;;;;;;;;11.10;93.50;;;;;;5052984;28;20344;-66
2023/03/15 11:37:01;;;;;;;;;;;11.00;93.00;;;;;;5070665;28;19931;-65
2023/03/15 11:39:44;;;;;;;;;;;11.00;92.00;;;;;;5073788;28;20329;-66
2023/03/15 11:42:13;;;;;;;;;;;11.00;92.60;;;;;;5066209;28;19931;-64
2023/03/15 11:44:42;;;;;;;;;;;11.10;92.40;;;;;;5067179;28;19925;-65
2023/03/15 11:47:10;;;;;;;;;;;11.10;92.10;;;;;;5069611;28;19929;-65
2023/03/15 11:49:42;;;;;;;;;;;11.00;91.70;;;;;;5040804;28;19925;-65
2023/03/15 11:52:07;;;;;;;;;;;10.90;90.40;;;;;;5071307;28;19951;-65
2023/03/15 11:54:33;;;;;;;;;;;10.70;90.90;;;;;;5036232;28;19925;-65
2023/03/15 11:56:59;;;;;;;;;;;10.60;91.60;;;;;;5069488;28;19925;-66
2023/03/15 11:59:29;;;;;;;;;;;10.60;91.90;;;;;;5056070;28;20304;-65
2023/03/15 12:01:56;;;;;;;;;;;10.50;92.30;;;;;;5051070;28;20324;-65
2023/03/15 12:04:31;;;;;;;;;;;10.50;92.70;;;;;;5067064;28;20003;-64
2023/03/15 12:07:02;;;;;;;;;;;10.50;92.70;;;;;;5070859;28;19928;-64
2023/03/15 12:09:30;;;;;;;;;;;10.60;92.30;;;;;;5073265;28;19928;-64
2023/03/15 12:11:57;;;;;;;;;;;10.50;92.20;;;;;;5064899;28;19939;-65
2023/03/15 12:14:30;;;;;;;;;;;10.40;92.30;;;;;;5072736;28;19925;-65
2023/03/15 12:17:28;;;;;;;;;;;10.30;91.90;;;;;;5061694;28;19928;-65
2023/03/15 12:20:07;;;;;;;;;;;10.20;92.20;;;;;;5016387;28;19971;-65
2023/03/15 12:22:34;;;;;;;;;;;10.30;91.50;;;;;;5068900;28;19929;-65
2023/03/15 12:25:07;;;;;;;;;;;10.30;91.40;;;;;;5063511;28;19928;-65
2023/03/15 12:27:34;;;;;;;;;;;10.40;91.60;;;;;;5071476;28;19928;-65
2023/03/15 12:30:01;;;;;;;;;;;10.30;92.30;;;;;;5051163;28;19924;-65
2023/03/15 12:32:28;;;;;;;;;;;10.20;92.50;;;;;;5070042;28;19929;-65
2023/03/15 12:35:07;;;;;;;;;;;10.20;92.30;;;;;;5056192;28;20504;-66
2023/03/15 12:37:43;;;;;;;;;;;10.20;92.50;;;;;;5071040;28;20355;-66
2023/03/15 12:40:15;;;;;;;;;;;10.30;92.20;;;;;;5060977;28;19932;-66
2023/03/15 12:42:41;;;;;;;;;;;10.20;92.60;;;;;;5067196;28;19924;-65
2023/03/15 12:45:16;;;;;;;;;;;10.30;92.60;;;;;;5060392;28;19928;-66
2023/03/15 12:47:50;;;;;;;;;;;10.40;92.40;;;;;;5069111;28;19968;-67
2023/03/15 12:50:50;;;;;;;;;;;10.50;92.30;;;;;;5063130;28;19928;-66
2023/03/15 12:53:26;;;;;;;;;;;10.40;92.10;;;;;;5003247;28;20389;-68
2023/03/15 12:55:51;;;;;;;;;;;10.30;91.80;;;;;;5065472;28;19924;-66
2023/03/15 12:58:19;;;;;;;;;;;10.20;91.60;;;;;;5072319;28;19939;-67
2023/03/15 13:00:45;;;;;;;;;;;10.30;92.20;;;;;;5073447;28;19924;-66
2023/03/15 13:03:15;;;;;;;;;;;10.30;92.50;;;;;;5064585;28;20011;-67
2023/03/15 13:05:59;;;;;;;;;;;10.30;91.90;;;;;;5072116;28;19924;-67
2023/03/15 13:08:45;;;;;;;;;;;10.30;92.20;;;;;;5072942;28;19936;-66
2023/03/15 13:11:30;;;;;;;;;;;10.30;91.80;;;;;;5055032;28;19928;-66
2023/03/15 13:14:25;;;;;;;;;;;10.30;92.30;;;;;;5039552;28;19924;-67
2023/03/15 13:17:15;;;;;;;;;;;10.20;92.00;;;;;;5054736;28;19924;-66
2023/03/15 13:19:45;;;;;;;;;;;10.20;92.30;;;;;;5054595;28;19975;-66
2023/03/15 13:22:14;;;;;;;;;;;10.20;92.80;;;;;;5059383;28;19928;-66
2023/03/15 13:24:42;;;;;;;;;;;10.30;92.50;;;;;;5074203;28;19928;-66
2023/03/15 13:27:07;;;;;;;;;;;10.30;92.30;;;;;;5073910;28;19932;-66
2023/03/15 13:29:33;;;;;;;;;;;10.20;91.70;;;;;;5079002;28;19924;-66
2023/03/15 13:32:10;;;;;;;;;;;10.20;92.40;;;;;;5054885;28;19932;-67
2023/03/15 13:34:36;;;;;;;;;;;10.30;92.40;;;;;;5086487;28;19938;-66
2023/03/15 13:37:01;;;;;;;;;;;10.20;92.70;;;;;;5073529;28;20019;-66
2023/03/15 13:39:29;;;;;;;;;;;10.30;92.30;;;;;;5066997;28;19928;-66
2023/03/15 13:41:57;;;;;;;;;;;10.20;92.10;;;;;;5092837;28;19924;-66
2023/03/15 13:44:24;;;;;;;;;;;10.20;92.60;;;;;;5078619;28;19924;-67
2023/03/15 13:46:50;;;;;;;;;;;10.00;92.40;;;;;;5077572;28;19932;-66
2023/03/15 13:49:16;;;;;;;;;;;9.90;91.50;;;;;;5063662;28;19960;-66
2023/03/15 13:51:42;;;;;;;;;;;9.80;92.30;;;;;;5085268;28;20567;-66
2023/03/15 13:54:14;;;;;;;;;;;9.70;93.20;;;;;;5080469;28;19975;-66
2023/03/15 13:57:00;;;;;;;;;;;9.70;93.20;;;;;;5081528;28;19929;-66
2023/03/15 13:59:31;;;;;;;;;;;9.70;92.70;;;;;;5049914;28;19978;-66
2023/03/15 14:01:57;;;;;;;;;;;9.70;92.80;;;;;;5077467;28;20031;-66
2023/03/15 14:04:24;;;;;;;;;;;9.70;92.90;;;;;;5048564;28;19932;-67
2023/03/15 14:06:50;;;;;;;;;;;9.70;92.90;;;;;;5073714;28;19931;-65
2023/03/15 14:09:20;;;;;;;;;;;9.70;93.40;;;;;;5073285;28;20377;-66
2023/03/15 14:11:59;;;;;;;;;;;9.70;93.40;;;;;;5070322;28;19978;-65
2023/03/15 14:14:26;;;;;;;;;;;9.70;93.00;;;;;;5071130;28;20408;-66
2023/03/15 14:16:52;;;;;;;;;;;9.70;93.10;;;;;;5069280;28;20428;-65
2023/03/15 14:19:18;;;;;;;;;;;9.70;93.10;;;;;;5052478;28;19924;-65
2023/03/15 14:21:46;;;;;;;;;;;9.60;92.60;;;;;;5052765;28;19932;-67
2023/03/15 14:24:25;;;;;;;;;;;9.50;92.70;;;;;;5056064;28;19925;-66
2023/03/15 14:26:56;;;;;;;;;;;9.40;93.10;;;;;;5062497;28;19936;-66
2023/03/15 14:29:32;;;;;;;;;;;9.40;93.60;;;;;;5052660;28;19965;-66
2023/03/15 14:32:00;;;;;;;;;;;9.40;93.90;;;;;;5051088;28;19932;-66